sensor_id;sensor_type;location;lat;lon;timestamp;temperature;humidity
43089;DHT22;28709;52.030;5.652;2022-07-05T00:00:48;16.40;95.40
43089;DHT22;28709;52.030;5.652;2022-07-05T00:03:14;16.40;95.60
43089;DHT22;28709;52.030;5.652;2022-07-05T00:05:40;16.40;95.60
43089;DHT22;28709;52.030;5.652;2022-07-05T00:08:06;16.30;95.70
43089;DHT22;28709;52.030;5.652;2022-07-05T00:10:33;16.30;95.80
43089;DHT22;28709;52.030;5.652;2022-07-05T00:12:59;16.20;96.00
43089;DHT22;28709;52.030;5.652;2022-07-05T00:15:25;16.20;96.10
43089;DHT22;28709;52.030;5.652;2022-07-05T00:17:50;16.10;96.20
43089;DHT22;28709;52.030;5.652;2022-07-05T00:20:16;16.10;96.30
43089;DHT22;28709;52.030;5.652;2022-07-05T00:22:42;16.10;96.40
43089;DHT22;28709;52.030;5.652;2022-07-05T00:25:08;16.10;96.50
43089;DHT22;28709;52.030;5.652;2022-07-05T00:27:34;16.10;96.50
43089;DHT22;28709;52.030;5.652;2022-07-05T00:29:59;16.10;96.60
43089;DHT22;28709;52.030;5.652;2022-07-05T00:32:25;16.10;96.60
43089;DHT22;28709;52.030;5.652;2022-07-05T00:34:51;16.00;96.70
43089;DHT22;28709;52.030;5.652;2022-07-05T00:37:17;16.00;96.90
43089;DHT22;28709;52.030;5.652;2022-07-05T00:39:42;15.90;96.90
43089;DHT22;28709;52.030;5.652;2022-07-05T00:42:08;15.90;97.00
43089;DHT22;28709;52.030;5.652;2022-07-05T00:44:36;15.90;97.00
43089;DHT22;28709;52.030;5.652;2022-07-05T00:47:05;15.90;97.10
43089;DHT22;28709;52.030;5.652;2022-07-05T00:49:33;15.80;97.10
43089;DHT22;28709;52.030;5.652;2022-07-05T00:51:59;15.80;97.10
43089;DHT22;28709;52.030;5.652;2022-07-05T00:54:30;15.80;97.20
43089;DHT22;28709;52.030;5.652;2022-07-05T00:56:57;15.80;97.20
43089;DHT22;28709;52.030;5.652;2022-07-05T00:59:23;15.80;97.30
43089;DHT22;28709;52.030;5.652;2022-07-05T01:01:49;15.70;97.40
43089;DHT22;28709;52.030;5.652;2022-07-05T01:04:15;15.70;97.60
43089;DHT22;28709;52.030;5.652;2022-07-05T01:06:43;15.60;97.60
43089;DHT22;28709;52.030;5.652;2022-07-05T01:09:13;15.60;97.60
43089;DHT22;28709;52.030;5.652;2022-07-05T01:11:45;15.60;97.70
43089;DHT22;28709;52.030;5.652;2022-07-05T01:14:16;15.60;97.80
43089;DHT22;28709;52.030;5.652;2022-07-05T01:16:42;15.60;97.90
43089;DHT22;28709;52.030;5.652;2022-07-05T01:19:10;15.50;98.00
43089;DHT22;28709;52.030;5.652;2022-07-05T01:21:39;15.50;98.10
43089;DHT22;28709;52.030;5.652;2022-07-05T01:24:06;15.40;98.20
43089;DHT22;28709;52.030;5.652;2022-07-05T01:26:32;15.40;98.40
43089;DHT22;28709;52.030;5.652;2022-07-05T01:28:58;15.30;98.60
43089;DHT22;28709;52.030;5.652;2022-07-05T01:31:24;15.20;98.90
43089;DHT22;28709;52.030;5.652;2022-07-05T01:33:50;15.20;99.10
43089;DHT22;28709;52.030;5.652;2022-07-05T01:36:16;15.10;99.40
43089;DHT22;28709;52.030;5.652;2022-07-05T01:38:41;15.00;99.70
43089;DHT22;28709;52.030;5.652;2022-07-05T01:41:08;14.90;99.90
43089;DHT22;28709;52.030;5.652;2022-07-05T01:43:34;14.80;99.90
43089;DHT22;28709;52.030;5.652;2022-07-05T01:46:01;14.70;99.90
43089;DHT22;28709;52.030;5.652;2022-07-05T01:48:28;14.70;99.90
43089;DHT22;28709;52.030;5.652;2022-07-05T01:51:00;14.70;99.90
43089;DHT22;28709;52.030;5.652;2022-07-05T01:53:31;14.60;99.90
43089;DHT22;28709;52.030;5.652;2022-07-05T01:55:58;14.60;99.90
43089;DHT22;28709;52.030;5.652;2022-07-05T01:58:27;14.60;99.90
43089;DHT22;28709;52.030;5.652;2022-07-05T02:00:54;14.60;99.90
43089;DHT22;28709;52.030;5.652;2022-07-05T02:03:20;14.60;99.90
43089;DHT22;28709;52.030;5.652;2022-07-05T02:05:46;14.50;99.90
43089;DHT22;28709;52.030;5.652;2022-07-05T02:08:15;14.50;99.90
43089;DHT22;28709;52.030;5.652;2022-07-05T02:10:42;14.50;99.90
43089;DHT22;28709;52.030;5.652;2022-07-05T02:13:08;14.40;99.90
43089;DHT22;28709;52.030;5.652;2022-07-05T02:15:35;14.40;99.90
43089;DHT22;28709;52.030;5.652;2022-07-05T02:18:03;14.40;99.90
43089;DHT22;28709;52.030;5.652;2022-07-05T02:20:30;14.40;99.90
43089;DHT22;28709;52.030;5.652;2022-07-05T02:22:55;14.40;99.90
43089;DHT22;28709;52.030;5.652;2022-07-05T02:25:21;14.40;99.90
43089;DHT22;28709;52.030;5.652;2022-07-05T02:27:48;14.50;99.90
43089;DHT22;28709;52.030;5.652;2022-07-05T02:30:14;14.50;99.90
43089;DHT22;28709;52.030;5.652;2022-07-05T02:32:40;14.60;99.90
43089;DHT22;28709;52.030;5.652;2022-07-05T02:35:07;14.60;99.90
43089;DHT22;28709;52.030;5.652;2022-07-05T02:37:33;14.60;99.90
43089;DHT22;28709;52.030;5.652;2022-07-05T02:39:59;14.60;99.90
43089;DHT22;28709;52.030;5.652;2022-07-05T02:42:24;14.60;99.90
43089;DHT22;28709;52.030;5.652;2022-07-05T02:44:50;14.60;99.90
43089;DHT22;28709;52.030;5.652;2022-07-05T02:47:16;14.60;99.90
43089;DHT22;28709;52.030;5.652;2022-07-05T02:49:41;14.60;99.90
43089;DHT22;28709;52.030;5.652;2022-07-05T02:52:07;14.60;99.90
43089;DHT22;28709;52.030;5.652;2022-07-05T02:54:32;14.70;99.90
43089;DHT22;28709;52.030;5.652;2022-07-05T02:56:59;14.70;99.90
43089;DHT22;28709;52.030;5.652;2022-07-05T02:59:25;14.70;99.90
43089;DHT22;28709;52.030;5.652;2022-07-05T03:01:50;14.70;99.90
43089;DHT22;28709;52.030;5.652;2022-07-05T03:04:16;14.80;99.90
43089;DHT22;28709;52.030;5.652;2022-07-05T03:06:42;14.80;99.90
43089;DHT22;28709;52.030;5.652;2022-07-05T03:09:07;14.90;99.90
43089;DHT22;28709;52.030;5.652;2022-07-05T03:11:33;14.90;99.90
43089;DHT22;28709;52.030;5.652;2022-07-05T03:13:59;14.90;99.90
43089;DHT22;28709;52.030;5.652;2022-07-05T03:16:24;15.00;99.90
43089;DHT22;28709;52.030;5.652;2022-07-05T03:18:50;14.90;99.90
43089;DHT22;28709;52.030;5.652;2022-07-05T03:21:16;15.00;99.90
43089;DHT22;28709;52.030;5.652;2022-07-05T03:23:42;14.90;99.90
43089;DHT22;28709;52.030;5.652;2022-07-05T03:26:07;15.00;99.90
43089;DHT22;28709;52.030;5.652;2022-07-05T03:28:33;15.00;99.90
43089;DHT22;28709;52.030;5.652;2022-07-05T03:30:59;15.00;99.90
43089;DHT22;28709;52.030;5.652;2022-07-05T03:33:24;15.10;99.90
43089;DHT22;28709;52.030;5.652;2022-07-05T03:35:50;15.10;99.90
43089;DHT22;28709;52.030;5.652;2022-07-05T03:38:16;15.20;99.90
43089;DHT22;28709;52.030;5.652;2022-07-05T03:40:42;15.10;99.90
43089;DHT22;28709;52.030;5.652;2022-07-05T03:43:08;15.20;99.90
43089;DHT22;28709;52.030;5.652;2022-07-05T03:45:33;15.20;99.90
43089;DHT22;28709;52.030;5.652;2022-07-05T03:47:59;15.30;99.90
43089;DHT22;28709;52.030;5.652;2022-07-05T03:50:25;15.30;99.90
43089;DHT22;28709;52.030;5.652;2022-07-05T03:52:51;15.30;99.90
43089;DHT22;28709;52.030;5.652;2022-07-05T03:55:17;15.30;99.90
43089;DHT22;28709;52.030;5.652;2022-07-05T03:57:43;15.30;99.90
43089;DHT22;28709;52.030;5.652;2022-07-05T04:00:09;15.30;99.90
43089;DHT22;28709;52.030;5.652;2022-07-05T04:02:35;15.40;99.90
43089;DHT22;28709;52.030;5.652;2022-07-05T04:05:00;15.40;99.90
43089;DHT22;28709;52.030;5.652;2022-07-05T04:07:26;15.40;99.90
43089;DHT22;28709;52.030;5.652;2022-07-05T04:09:52;15.40;99.90
43089;DHT22;28709;52.030;5.652;2022-07-05T04:12:17;15.40;99.90
43089;DHT22;28709;52.030;5.652;2022-07-05T04:14:43;15.50;99.90
43089;DHT22;28709;52.030;5.652;2022-07-05T04:17:09;15.50;99.90
43089;DHT22;28709;52.030;5.652;2022-07-05T04:19:35;15.60;99.90
43089;DHT22;28709;52.030;5.652;2022-07-05T04:22:00;15.60;99.90
43089;DHT22;28709;52.030;5.652;2022-07-05T04:24:26;15.70;99.90
43089;DHT22;28709;52.030;5.652;2022-07-05T04:26:52;15.70;99.90
43089;DHT22;28709;52.030;5.652;2022-07-05T04:29:17;15.70;99.90
43089;DHT22;28709;52.030;5.652;2022-07-05T04:31:43;15.80;99.90
43089;DHT22;28709;52.030;5.652;2022-07-05T04:34:09;15.90;99.90
43089;DHT22;28709;52.030;5.652;2022-07-05T04:36:35;15.90;99.90
43089;DHT22;28709;52.030;5.652;2022-07-05T04:39:03;15.90;99.90
43089;DHT22;28709;52.030;5.652;2022-07-05T04:41:29;16.00;99.90
43089;DHT22;28709;52.030;5.652;2022-07-05T04:43:54;16.00;99.90
43089;DHT22;28709;52.030;5.652;2022-07-05T04:46:20;16.00;99.90
43089;DHT22;28709;52.030;5.652;2022-07-05T04:48:46;16.00;99.90
43089;DHT22;28709;52.030;5.652;2022-07-05T04:51:12;16.00;99.90
43089;DHT22;28709;52.030;5.652;2022-07-05T04:53:38;16.00;99.90
43089;DHT22;28709;52.030;5.652;2022-07-05T04:56:04;16.00;99.90
43089;DHT22;28709;52.030;5.652;2022-07-05T04:58:30;16.00;99.90
43089;DHT22;28709;52.030;5.652;2022-07-05T05:00:56;16.00;99.90
43089;DHT22;28709;52.030;5.652;2022-07-05T05:03:31;16.00;99.90
43089;DHT22;28709;52.030;5.652;2022-07-05T05:05:57;16.00;99.90
43089;DHT22;28709;52.030;5.652;2022-07-05T05:08:22;16.00;99.90
43089;DHT22;28709;52.030;5.652;2022-07-05T05:10:48;16.10;99.90
43089;DHT22;28709;52.030;5.652;2022-07-05T05:13:14;16.10;99.90
43089;DHT22;28709;52.030;5.652;2022-07-05T05:15:39;16.20;99.90
43089;DHT22;28709;52.030;5.652;2022-07-05T05:18:05;16.20;99.90
43089;DHT22;28709;52.030;5.652;2022-07-05T05:20:31;16.20;99.90
43089;DHT22;28709;52.030;5.652;2022-07-05T05:22:56;16.30;99.90
43089;DHT22;28709;52.030;5.652;2022-07-05T05:25:22;16.30;99.90
43089;DHT22;28709;52.030;5.652;2022-07-05T05:27:49;16.30;99.90
43089;DHT22;28709;52.030;5.652;2022-07-05T05:30:17;16.30;99.90
43089;DHT22;28709;52.030;5.652;2022-07-05T05:32:43;16.20;99.90
43089;DHT22;28709;52.030;5.652;2022-07-05T05:35:09;16.10;99.90
43089;DHT22;28709;52.030;5.652;2022-07-05T05:37:48;16.20;99.90
43089;DHT22;28709;52.030;5.652;2022-07-05T05:40:14;16.10;99.90
43089;DHT22;28709;52.030;5.652;2022-07-05T05:42:40;16.10;99.90
43089;DHT22;28709;52.030;5.652;2022-07-05T05:45:05;16.10;99.90
43089;DHT22;28709;52.030;5.652;2022-07-05T05:47:31;16.20;99.90
43089;DHT22;28709;52.030;5.652;2022-07-05T05:49:57;16.20;99.90
43089;DHT22;28709;52.030;5.652;2022-07-05T05:52:22;16.20;99.90
43089;DHT22;28709;52.030;5.652;2022-07-05T05:54:48;16.30;99.90
43089;DHT22;28709;52.030;5.652;2022-07-05T05:57:14;16.40;99.90
43089;DHT22;28709;52.030;5.652;2022-07-05T05:59:39;16.50;99.90
43089;DHT22;28709;52.030;5.652;2022-07-05T06:02:06;16.60;99.90
43089;DHT22;28709;52.030;5.652;2022-07-05T06:04:31;16.70;99.90
43089;DHT22;28709;52.030;5.652;2022-07-05T06:06:57;16.90;99.90
43089;DHT22;28709;52.030;5.652;2022-07-05T06:09:22;17.00;99.90
43089;DHT22;28709;52.030;5.652;2022-07-05T06:11:48;17.10;99.90
43089;DHT22;28709;52.030;5.652;2022-07-05T06:14:13;17.20;99.90
43089;DHT22;28709;52.030;5.652;2022-07-05T06:16:39;17.40;99.90
43089;DHT22;28709;52.030;5.652;2022-07-05T06:19:05;17.50;99.90
43089;DHT22;28709;52.030;5.652;2022-07-05T06:21:30;17.60;99.90
43089;DHT22;28709;52.030;5.652;2022-07-05T06:23:56;17.70;99.90
43089;DHT22;28709;52.030;5.652;2022-07-05T06:26:21;17.80;99.90
43089;DHT22;28709;52.030;5.652;2022-07-05T06:28:47;17.90;99.90
43089;DHT22;28709;52.030;5.652;2022-07-05T06:31:14;18.00;99.90
43089;DHT22;28709;52.030;5.652;2022-07-05T06:33:40;18.10;99.90
43089;DHT22;28709;52.030;5.652;2022-07-05T06:36:06;18.30;99.90
43089;DHT22;28709;52.030;5.652;2022-07-05T06:38:31;18.60;99.90
43089;DHT22;28709;52.030;5.652;2022-07-05T06:40:57;18.80;99.90
43089;DHT22;28709;52.030;5.652;2022-07-05T06:43:25;19.00;99.90
43089;DHT22;28709;52.030;5.652;2022-07-05T06:45:50;19.10;99.90
43089;DHT22;28709;52.030;5.652;2022-07-05T06:48:17;19.20;99.90
43089;DHT22;28709;52.030;5.652;2022-07-05T06:50:43;19.30;99.90
43089;DHT22;28709;52.030;5.652;2022-07-05T06:53:09;19.50;99.90
43089;DHT22;28709;52.030;5.652;2022-07-05T06:55:35;19.60;99.90
43089;DHT22;28709;52.030;5.652;2022-07-05T06:58:06;19.80;99.90
43089;DHT22;28709;52.030;5.652;2022-07-05T07:00:32;19.90;99.90
43089;DHT22;28709;52.030;5.652;2022-07-05T07:02:58;20.00;99.90
43089;DHT22;28709;52.030;5.652;2022-07-05T07:05:25;20.10;99.90
43089;DHT22;28709;52.030;5.652;2022-07-05T07:07:50;20.20;99.90
43089;DHT22;28709;52.030;5.652;2022-07-05T07:10:34;20.40;99.90
43089;DHT22;28709;52.030;5.652;2022-07-05T07:13:00;20.50;99.90
43089;DHT22;28709;52.030;5.652;2022-07-05T07:15:27;20.60;99.90
43089;DHT22;28709;52.030;5.652;2022-07-05T07:17:52;20.70;99.90
43089;DHT22;28709;52.030;5.652;2022-07-05T07:20:18;20.80;99.90
43089;DHT22;28709;52.030;5.652;2022-07-05T07:22:44;20.90;99.90
43089;DHT22;28709;52.030;5.652;2022-07-05T07:25:10;21.00;99.90
43089;DHT22;28709;52.030;5.652;2022-07-05T07:27:48;21.00;99.90
43089;DHT22;28709;52.030;5.652;2022-07-05T07:30:16;21.00;99.90
43089;DHT22;28709;52.030;5.652;2022-07-05T07:32:42;21.10;99.90
43089;DHT22;28709;52.030;5.652;2022-07-05T07:35:09;21.20;99.90
43089;DHT22;28709;52.030;5.652;2022-07-05T07:37:35;21.20;99.90
43089;DHT22;28709;52.030;5.652;2022-07-05T07:40:01;21.20;99.90
43089;DHT22;28709;52.030;5.652;2022-07-05T07:42:27;21.10;99.90
43089;DHT22;28709;52.030;5.652;2022-07-05T07:44:53;21.10;99.90
43089;DHT22;28709;52.030;5.652;2022-07-05T07:47:19;21.10;99.50
43089;DHT22;28709;52.030;5.652;2022-07-05T07:49:44;21.00;99.10
43089;DHT22;28709;52.030;5.652;2022-07-05T07:52:11;21.00;99.00
43089;DHT22;28709;52.030;5.652;2022-07-05T07:54:36;21.10;98.60
43089;DHT22;28709;52.030;5.652;2022-07-05T07:57:02;21.20;97.80
43089;DHT22;28709;52.030;5.652;2022-07-05T07:59:31;21.40;97.30
43089;DHT22;28709;52.030;5.652;2022-07-05T08:01:56;21.40;97.20
43089;DHT22;28709;52.030;5.652;2022-07-05T08:04:22;21.50;97.40
43089;DHT22;28709;52.030;5.652;2022-07-05T08:06:48;21.50;97.40
43089;DHT22;28709;52.030;5.652;2022-07-05T08:09:13;21.50;97.60
43089;DHT22;28709;52.030;5.652;2022-07-05T08:11:39;21.50;97.20
43089;DHT22;28709;52.030;5.652;2022-07-05T08:14:05;21.40;97.30
43089;DHT22;28709;52.030;5.652;2022-07-05T08:16:31;21.40;97.00
43089;DHT22;28709;52.030;5.652;2022-07-05T08:18:57;21.30;97.10
43089;DHT22;28709;52.030;5.652;2022-07-05T08:21:41;21.30;97.30
43089;DHT22;28709;52.030;5.652;2022-07-05T08:24:09;21.30;97.30
43089;DHT22;28709;52.030;5.652;2022-07-05T08:26:36;21.30;97.60
43089;DHT22;28709;52.030;5.652;2022-07-05T08:29:04;21.50;97.60
43089;DHT22;28709;52.030;5.652;2022-07-05T08:31:32;21.70;97.50
43089;DHT22;28709;52.030;5.652;2022-07-05T08:33:59;21.90;97.10
43089;DHT22;28709;52.030;5.652;2022-07-05T08:36:25;22.00;96.40
43089;DHT22;28709;52.030;5.652;2022-07-05T08:38:50;22.00;95.80
43089;DHT22;28709;52.030;5.652;2022-07-05T08:41:25;22.00;96.20
43089;DHT22;28709;52.030;5.652;2022-07-05T08:43:51;22.10;96.10
43089;DHT22;28709;52.030;5.652;2022-07-05T08:46:18;22.10;95.90
43089;DHT22;28709;52.030;5.652;2022-07-05T08:48:47;22.00;95.80
43089;DHT22;28709;52.030;5.652;2022-07-05T08:51:15;22.00;95.40
43089;DHT22;28709;52.030;5.652;2022-07-05T08:53:48;22.10;94.70
43089;DHT22;28709;52.030;5.652;2022-07-05T08:56:15;22.20;94.40
43089;DHT22;28709;52.030;5.652;2022-07-05T08:58:41;22.50;94.40
43089;DHT22;28709;52.030;5.652;2022-07-05T09:01:08;22.80;94.60
43089;DHT22;28709;52.030;5.652;2022-07-05T09:03:39;23.00;94.00
43089;DHT22;28709;52.030;5.652;2022-07-05T09:06:09;23.10;93.80
43089;DHT22;28709;52.030;5.652;2022-07-05T09:08:37;23.00;94.00
43089;DHT22;28709;52.030;5.652;2022-07-05T09:11:08;22.90;94.00
43089;DHT22;28709;52.030;5.652;2022-07-05T09:13:36;22.90;93.90
43089;DHT22;28709;52.030;5.652;2022-07-05T09:16:03;22.70;94.00
43089;DHT22;28709;52.030;5.652;2022-07-05T09:18:51;22.60;94.00
43089;DHT22;28709;52.030;5.652;2022-07-05T09:23:58;22.40;94.20
43089;DHT22;28709;52.030;5.652;2022-07-05T09:26:47;22.50;94.10
43089;DHT22;28709;52.030;5.652;2022-07-05T09:29:19;22.60;94.00
43089;DHT22;28709;52.030;5.652;2022-07-05T09:31:46;22.70;94.10
43089;DHT22;28709;52.030;5.652;2022-07-05T09:34:14;22.80;94.10
43089;DHT22;28709;52.030;5.652;2022-07-05T09:37:00;23.00;93.80
43089;DHT22;28709;52.030;5.652;2022-07-05T09:42:18;22.80;93.50
43089;DHT22;28709;52.030;5.652;2022-07-05T09:44:54;22.60;93.60
43089;DHT22;28709;52.030;5.652;2022-07-05T09:47:27;22.70;93.70
43089;DHT22;28709;52.030;5.652;2022-07-05T09:49:55;23.00;93.10
43089;DHT22;28709;52.030;5.652;2022-07-05T09:52:40;23.10;93.00
43089;DHT22;28709;52.030;5.652;2022-07-05T09:57:37;23.50;92.40
43089;DHT22;28709;52.030;5.652;2022-07-05T10:00:10;23.40;91.40
43089;DHT22;28709;52.030;5.652;2022-07-05T10:07:39;23.40;91.70
43089;DHT22;28709;52.030;5.652;2022-07-05T10:10:07;23.40;91.70
43089;DHT22;28709;52.030;5.652;2022-07-05T10:12:35;23.30;88.30
43089;DHT22;28709;52.030;5.652;2022-07-05T10:15:02;23.10;87.40
43089;DHT22;28709;52.030;5.652;2022-07-05T10:17:29;23.00;87.50
43089;DHT22;28709;52.030;5.652;2022-07-05T10:19:57;22.90;88.00
43089;DHT22;28709;52.030;5.652;2022-07-05T10:22:23;22.70;88.20
43089;DHT22;28709;52.030;5.652;2022-07-05T10:24:49;22.70;88.70
43089;DHT22;28709;52.030;5.652;2022-07-05T10:27:17;22.80;89.10
43089;DHT22;28709;52.030;5.652;2022-07-05T10:29:43;23.00;88.40
43089;DHT22;28709;52.030;5.652;2022-07-05T10:32:10;23.00;88.40
43089;DHT22;28709;52.030;5.652;2022-07-05T10:34:36;23.20;87.90
43089;DHT22;28709;52.030;5.652;2022-07-05T10:37:03;23.50;86.10
43089;DHT22;28709;52.030;5.652;2022-07-05T10:39:30;23.60;85.80
43089;DHT22;28709;52.030;5.652;2022-07-05T10:41:56;23.80;84.20
43089;DHT22;28709;52.030;5.652;2022-07-05T10:44:29;23.70;83.90
43089;DHT22;28709;52.030;5.652;2022-07-05T10:47:10;23.70;82.90
43089;DHT22;28709;52.030;5.652;2022-07-05T10:49:36;23.70;84.40
43089;DHT22;28709;52.030;5.652;2022-07-05T10:52:03;24.00;83.30
43089;DHT22;28709;52.030;5.652;2022-07-05T10:54:29;24.00;81.90
43089;DHT22;28709;52.030;5.652;2022-07-05T10:57:23;23.90;81.50
43089;DHT22;28709;52.030;5.652;2022-07-05T11:00:09;23.40;82.70
43089;DHT22;28709;52.030;5.652;2022-07-05T11:02:35;23.00;83.20
43089;DHT22;28709;52.030;5.652;2022-07-05T11:05:02;23.00;83.60
43089;DHT22;28709;52.030;5.652;2022-07-05T11:07:59;23.20;83.40
43089;DHT22;28709;52.030;5.652;2022-07-05T11:10:25;23.70;83.20
43089;DHT22;28709;52.030;5.652;2022-07-05T11:12:51;24.20;83.10
43089;DHT22;28709;52.030;5.652;2022-07-05T11:15:16;24.60;81.00
43089;DHT22;28709;52.030;5.652;2022-07-05T11:17:42;24.70;80.60
43089;DHT22;28709;52.030;5.652;2022-07-05T11:20:17;24.50;78.00
43089;DHT22;28709;52.030;5.652;2022-07-05T11:23:08;24.20;78.00
43089;DHT22;28709;52.030;5.652;2022-07-05T11:25:37;23.70;79.00
43089;DHT22;28709;52.030;5.652;2022-07-05T11:28:16;23.50;79.10
43089;DHT22;28709;52.030;5.652;2022-07-05T11:30:53;23.30;79.60
43089;DHT22;28709;52.030;5.652;2022-07-05T11:33:30;23.40;79.60
43089;DHT22;28709;52.030;5.652;2022-07-05T11:35:56;23.70;79.10
43089;DHT22;28709;52.030;5.652;2022-07-05T11:38:25;23.90;79.40
43089;DHT22;28709;52.030;5.652;2022-07-05T11:40:51;24.00;79.50
43089;DHT22;28709;52.030;5.652;2022-07-05T11:43:29;23.70;80.00
43089;DHT22;28709;52.030;5.652;2022-07-05T11:45:59;23.60;79.40
43089;DHT22;28709;52.030;5.652;2022-07-05T11:48:26;23.60;80.20
43089;DHT22;28709;52.030;5.652;2022-07-05T11:50:52;23.80;79.30
43089;DHT22;28709;52.030;5.652;2022-07-05T11:53:31;23.90;77.70
43089;DHT22;28709;52.030;5.652;2022-07-05T11:56:00;23.70;78.20
43089;DHT22;28709;52.030;5.652;2022-07-05T11:58:32;23.90;78.90
43089;DHT22;28709;52.030;5.652;2022-07-05T12:00:58;23.80;79.00
43089;DHT22;28709;52.030;5.652;2022-07-05T12:03:24;23.90;79.40
43089;DHT22;28709;52.030;5.652;2022-07-05T12:05:50;24.00;78.90
43089;DHT22;28709;52.030;5.652;2022-07-05T12:08:21;23.90;79.20
43089;DHT22;28709;52.030;5.652;2022-07-05T12:10:48;23.70;79.60
43089;DHT22;28709;52.030;5.652;2022-07-05T12:13:46;23.60;80.00
43089;DHT22;28709;52.030;5.652;2022-07-05T12:16:12;23.60;79.90
43089;DHT22;28709;52.030;5.652;2022-07-05T12:18:54;23.60;79.70
43089;DHT22;28709;52.030;5.652;2022-07-05T12:21:21;23.30;79.10
43089;DHT22;28709;52.030;5.652;2022-07-05T12:23:48;23.00;80.30
43089;DHT22;28709;52.030;5.652;2022-07-05T12:26:15;22.70;81.20
43089;DHT22;28709;52.030;5.652;2022-07-05T12:28:42;22.60;81.60
43089;DHT22;28709;52.030;5.652;2022-07-05T12:31:22;22.60;81.00
43089;DHT22;28709;52.030;5.652;2022-07-05T12:33:49;22.90;81.30
43089;DHT22;28709;52.030;5.652;2022-07-05T12:36:20;23.30;80.90
43089;DHT22;28709;52.030;5.652;2022-07-05T12:38:48;23.50;80.80
43089;DHT22;28709;52.030;5.652;2022-07-05T12:41:23;23.40;79.70
43089;DHT22;28709;52.030;5.652;2022-07-05T12:43:55;23.30;80.20
43089;DHT22;28709;52.030;5.652;2022-07-05T12:46:36;23.40;80.00
43089;DHT22;28709;52.030;5.652;2022-07-05T12:49:03;23.30;79.50
43089;DHT22;28709;52.030;5.652;2022-07-05T12:51:36;23.10;80.10
43089;DHT22;28709;52.030;5.652;2022-07-05T12:54:21;22.90;80.00
43089;DHT22;28709;52.030;5.652;2022-07-05T12:57:06;22.80;79.90
43089;DHT22;28709;52.030;5.652;2022-07-05T13:00:04;22.80;79.80
43089;DHT22;28709;52.030;5.652;2022-07-05T13:02:35;22.80;80.20
43089;DHT22;28709;52.030;5.652;2022-07-05T13:05:01;22.80;79.50
43089;DHT22;28709;52.030;5.652;2022-07-05T13:07:27;22.70;79.50
43089;DHT22;28709;52.030;5.652;2022-07-05T13:09:53;22.60;79.70
43089;DHT22;28709;52.030;5.652;2022-07-05T13:12:20;22.50;79.60
43089;DHT22;28709;52.030;5.652;2022-07-05T13:14:50;22.50;79.90
43089;DHT22;28709;52.030;5.652;2022-07-05T13:17:18;22.60;79.60
43089;DHT22;28709;52.030;5.652;2022-07-05T13:19:51;22.80;77.80
43089;DHT22;28709;52.030;5.652;2022-07-05T13:22:17;23.00;78.20
43089;DHT22;28709;52.030;5.652;2022-07-05T13:24:43;23.10;77.20
43089;DHT22;28709;52.030;5.652;2022-07-05T13:27:11;23.20;75.60
43089;DHT22;28709;52.030;5.652;2022-07-05T13:29:38;23.20;76.00
43089;DHT22;28709;52.030;5.652;2022-07-05T13:32:04;23.30;76.20
43089;DHT22;28709;52.030;5.652;2022-07-05T13:34:30;23.40;76.10
43089;DHT22;28709;52.030;5.652;2022-07-05T13:36:57;23.60;76.40
43089;DHT22;28709;52.030;5.652;2022-07-05T13:39:25;23.70;74.60
43089;DHT22;28709;52.030;5.652;2022-07-05T13:41:52;23.70;74.80
43089;DHT22;28709;52.030;5.652;2022-07-05T13:44:18;23.70;74.20
43089;DHT22;28709;52.030;5.652;2022-07-05T13:46:44;23.50;75.10
43089;DHT22;28709;52.030;5.652;2022-07-05T13:49:10;23.40;74.60
43089;DHT22;28709;52.030;5.652;2022-07-05T13:51:35;23.20;74.40
43089;DHT22;28709;52.030;5.652;2022-07-05T13:54:01;23.10;75.00
43089;DHT22;28709;52.030;5.652;2022-07-05T13:56:27;23.20;74.90
43089;DHT22;28709;52.030;5.652;2022-07-05T13:58:54;23.10;74.80
43089;DHT22;28709;52.030;5.652;2022-07-05T14:01:21;23.10;73.80
43089;DHT22;28709;52.030;5.652;2022-07-05T14:03:55;23.10;73.40
43089;DHT22;28709;52.030;5.652;2022-07-05T14:06:22;22.90;74.10
43089;DHT22;28709;52.030;5.652;2022-07-05T14:08:48;22.80;73.70
43089;DHT22;28709;52.030;5.652;2022-07-05T14:11:13;22.70;73.30
43089;DHT22;28709;52.030;5.652;2022-07-05T14:13:39;22.60;73.80
43089;DHT22;28709;52.030;5.652;2022-07-05T14:16:05;22.80;74.00
43089;DHT22;28709;52.030;5.652;2022-07-05T14:18:32;22.90;73.50
43089;DHT22;28709;52.030;5.652;2022-07-05T14:20:58;22.70;74.20
43089;DHT22;28709;52.030;5.652;2022-07-05T14:23:24;22.60;74.60
43089;DHT22;28709;52.030;5.652;2022-07-05T14:25:49;22.60;74.60
43089;DHT22;28709;52.030;5.652;2022-07-05T14:28:15;22.80;73.70
43089;DHT22;28709;52.030;5.652;2022-07-05T14:30:42;22.90;73.20
43089;DHT22;28709;52.030;5.652;2022-07-05T14:33:08;23.20;72.90
43089;DHT22;28709;52.030;5.652;2022-07-05T14:35:35;23.30;72.20
43089;DHT22;28709;52.030;5.652;2022-07-05T14:38:01;23.30;71.60
43089;DHT22;28709;52.030;5.652;2022-07-05T14:40:27;23.30;72.20
43089;DHT22;28709;52.030;5.652;2022-07-05T14:42:55;23.20;72.60
43089;DHT22;28709;52.030;5.652;2022-07-05T14:45:22;23.10;72.30
43089;DHT22;28709;52.030;5.652;2022-07-05T14:47:48;23.10;70.30
43089;DHT22;28709;52.030;5.652;2022-07-05T14:50:14;23.10;70.80
43089;DHT22;28709;52.030;5.652;2022-07-05T14:52:43;23.10;71.40
43089;DHT22;28709;52.030;5.652;2022-07-05T14:55:09;23.10;71.80
43089;DHT22;28709;52.030;5.652;2022-07-05T14:57:39;23.00;71.20
43089;DHT22;28709;52.030;5.652;2022-07-05T15:00:08;22.80;72.20
43089;DHT22;28709;52.030;5.652;2022-07-05T15:02:34;22.50;72.70
43089;DHT22;28709;52.030;5.652;2022-07-05T15:05:00;22.40;72.80
43089;DHT22;28709;52.030;5.652;2022-07-05T15:07:26;22.30;72.50
43089;DHT22;28709;52.030;5.652;2022-07-05T15:09:52;22.30;73.00
43089;DHT22;28709;52.030;5.652;2022-07-05T15:12:18;22.30;73.30
43089;DHT22;28709;52.030;5.652;2022-07-05T15:14:44;22.30;73.40
43089;DHT22;28709;52.030;5.652;2022-07-05T15:17:10;22.20;73.60
43089;DHT22;28709;52.030;5.652;2022-07-05T15:19:35;22.20;73.60
43089;DHT22;28709;52.030;5.652;2022-07-05T15:22:02;22.20;73.60
43089;DHT22;28709;52.030;5.652;2022-07-05T15:24:27;22.00;74.10
43089;DHT22;28709;52.030;5.652;2022-07-05T15:26:53;22.00;74.50
43089;DHT22;28709;52.030;5.652;2022-07-05T15:29:19;22.00;74.30
43089;DHT22;28709;52.030;5.652;2022-07-05T15:31:44;22.00;74.50
43089;DHT22;28709;52.030;5.652;2022-07-05T15:34:10;22.00;74.70
43089;DHT22;28709;52.030;5.652;2022-07-05T15:36:37;22.20;74.40
43089;DHT22;28709;52.030;5.652;2022-07-05T15:39:05;22.20;74.00
43089;DHT22;28709;52.030;5.652;2022-07-05T15:41:32;22.20;74.20
43089;DHT22;28709;52.030;5.652;2022-07-05T15:43:58;22.30;74.10
43089;DHT22;28709;52.030;5.652;2022-07-05T15:46:24;22.20;73.50